Weather at Former Puerto Peñasco Airport [CLOSED]

Public forecast

Using degrees Celsius for public forecast. Weather courtesy of forecast.io.

Current aviation weather report (METAR) for Former Puerto Peñasco Airport

Retrieved UTC (0 seconds ago):

Closest aviation forecast (TAF) to Former Puerto Peñasco Airport

Forecast is more than 12 hours old.

Closest forecast is Yuma International Airport / Marine Corps Air Station Yuma, 95.5 nm (176.9 km) NW. Retrieved 2014/04/27 15:15 UTC (8 years ago):

TAF TAF COR KNYL 271500Z 2715/2815 VRB06KT 9999 FEW250 QNH2989INS BECMG 2716/2718 26007KT QNH2978INS BECMG 2806/2808 VRB05KT QNH2981INS AUTOMATED SENSOR METWATCH 2715 TIL 2815 TX22/2723Z TN10/2813Z COR 1545